createdAt,value
2018-10-17T00:00:47.496Z,10.43
2018-10-17T00:03:15.811Z,10.27
2018-10-17T00:05:44.477Z,10.48
2018-10-17T00:08:12.794Z,10.20
2018-10-17T00:10:41.206Z,10.36
2018-10-17T00:13:09.584Z,10.39
2018-10-17T00:15:37.916Z,10.25
2018-10-17T00:18:06.470Z,10.20
2018-10-17T00:20:34.831Z,10.27
2018-10-17T00:23:03.216Z,10.22
2018-10-17T00:25:31.561Z,10.08
2018-10-17T00:27:59.878Z,9.72
2018-10-17T00:30:28.184Z,9.62
2018-10-17T00:32:56.570Z,9.52
2018-10-17T00:35:24.909Z,9.55
2018-10-17T00:37:53.246Z,9.73
2018-10-17T00:40:23.996Z,9.77
2018-10-17T00:42:53.159Z,9.72
2018-10-17T00:45:21.626Z,9.80
2018-10-17T00:47:49.974Z,9.87
2018-10-17T00:50:18.341Z,9.64
2018-10-17T00:52:46.650Z,9.47
2018-10-17T00:55:15.340Z,9.14
2018-10-17T00:57:43.587Z,9.41
2018-10-17T01:00:11.946Z,9.53
2018-10-17T01:02:40.294Z,9.49
2018-10-17T01:05:08.747Z,9.46
2018-10-17T01:07:37.080Z,9.39
2018-10-17T01:10:05.615Z,9.47
2018-10-17T01:12:33.926Z,9.57
2018-10-17T01:15:02.289Z,9.39
2018-10-17T01:17:30.654Z,9.10
2018-10-17T01:19:58.983Z,9.13
2018-10-17T01:22:27.466Z,9.33
2018-10-17T01:24:55.865Z,9.45
2018-10-17T01:27:24.214Z,9.33
2018-10-17T01:29:52.567Z,9.21
2018-10-17T01:32:20.916Z,8.92
2018-10-17T01:34:49.287Z,8.99
2018-10-17T01:37:17.670Z,9.05
2018-10-17T01:39:46.010Z,9.04
2018-10-17T01:42:14.343Z,9.29
2018-10-17T01:44:42.679Z,9.32
2018-10-17T01:47:11.101Z,8.93
2018-10-17T01:49:39.455Z,8.73
2018-10-17T01:52:07.785Z,8.72
2018-10-17T01:54:36.159Z,8.63
2018-10-17T01:57:04.575Z,8.70
2018-10-17T01:59:32.882Z,8.52
2018-10-17T02:02:01.236Z,8.64
2018-10-17T02:04:29.534Z,8.72
2018-10-17T02:06:57.929Z,8.90
2018-10-17T02:09:26.244Z,9.03
2018-10-17T02:11:54.588Z,8.90
2018-10-17T02:14:22.939Z,8.97
2018-10-17T02:16:51.368Z,9.03
2018-10-17T02:19:19.709Z,8.99
2018-10-17T02:21:48.041Z,8.81
2018-10-17T02:24:16.388Z,8.89
2018-10-17T02:26:44.727Z,8.81
2018-10-17T02:29:13.137Z,8.85
2018-10-17T02:31:41.495Z,8.89
2018-10-17T02:34:09.819Z,8.89
2018-10-17T02:36:38.191Z,9.02
2018-10-17T02:39:08.242Z,8.82
2018-10-17T02:41:47.719Z,8.50
2018-10-17T02:44:26.359Z,8.27
2018-10-17T02:46:57.652Z,8.47
2018-10-17T02:49:26.127Z,8.62
2018-10-17T02:51:54.466Z,8.56
2018-10-17T02:54:22.832Z,8.61
2018-10-17T02:56:51.174Z,8.69
2018-10-17T02:59:19.551Z,8.80
2018-10-17T03:01:47.899Z,8.91
2018-10-17T03:04:16.248Z,8.61
2018-10-17T03:06:44.616Z,8.17
2018-10-17T03:09:12.947Z,8.24
2018-10-17T03:11:41.276Z,8.28
2018-10-17T03:14:09.639Z,8.57
2018-10-17T03:16:38.048Z,8.58
2018-10-17T03:19:06.459Z,8.43
2018-10-17T03:21:34.838Z,8.16
2018-10-17T03:24:03.186Z,8.22
2018-10-17T03:26:31.535Z,8.07
2018-10-17T03:28:59.957Z,8.46
2018-10-17T03:31:28.383Z,8.51
2018-10-17T03:33:56.672Z,8.42
2018-10-17T03:36:25.001Z,8.57
2018-10-17T03:38:53.371Z,8.51
2018-10-17T03:41:21.710Z,8.26
2018-10-17T03:43:50.023Z,8.02
2018-10-17T03:46:18.362Z,8.14
2018-10-17T03:48:46.682Z,7.94
2018-10-17T03:51:15.155Z,7.89
2018-10-17T03:53:43.500Z,8.21
2018-10-17T03:56:11.840Z,8.41
2018-10-17T03:58:40.217Z,8.35
2018-10-17T04:01:08.619Z,8.38
2018-10-17T04:03:36.915Z,8.27
2018-10-17T04:06:05.582Z,8.15
2018-10-17T04:08:33.947Z,8.18
2018-10-17T04:11:02.335Z,8.25
2018-10-17T04:13:30.688Z,8.11
2018-10-17T04:15:59.056Z,8.04
2018-10-17T04:18:27.411Z,7.96
2018-10-17T04:20:55.814Z,7.99
2018-10-17T04:23:24.144Z,8.07
2018-10-17T04:25:52.449Z,8.25
2018-10-17T04:28:20.814Z,8.32
2018-10-17T04:30:49.167Z,8.41
2018-10-17T04:33:17.519Z,8.21
2018-10-17T04:35:45.945Z,7.92
2018-10-17T04:38:14.346Z,7.88
2018-10-17T04:40:42.779Z,7.94
2018-10-17T04:43:11.430Z,8.02
2018-10-17T04:45:40.017Z,8.02
2018-10-17T04:48:08.414Z,7.84
2018-10-17T04:50:36.815Z,7.66
2018-10-17T04:53:05.346Z,7.74
2018-10-17T04:55:33.690Z,7.87
2018-10-17T04:58:02.126Z,7.92
2018-10-17T05:00:30.488Z,7.93
2018-10-17T05:02:58.826Z,7.77
2018-10-17T05:05:27.182Z,7.66
2018-10-17T05:07:55.684Z,7.71
2018-10-17T05:10:24.065Z,7.94
2018-10-17T05:12:52.409Z,8.07
2018-10-17T05:15:20.865Z,8.06
2018-10-17T05:17:49.187Z,8.02
2018-10-17T05:20:17.756Z,7.94
2018-10-17T05:22:46.138Z,8.04
2018-10-17T05:25:14.511Z,8.26
2018-10-17T05:27:42.832Z,8.31
2018-10-17T05:30:11.152Z,8.31
2018-10-17T05:32:39.537Z,8.36
2018-10-17T05:35:08.252Z,8.37
2018-10-17T05:37:36.720Z,8.15
2018-10-17T05:40:06.086Z,7.97
2018-10-17T05:42:34.478Z,8.02
2018-10-17T05:45:03.475Z,8.06
2018-10-17T05:47:32.307Z,8.54
2018-10-17T05:50:00.816Z,8.49
2018-10-17T05:52:29.179Z,8.64
2018-10-17T05:54:57.606Z,8.58
2018-10-17T05:57:26.003Z,8.44
2018-10-17T05:59:54.426Z,8.48
2018-10-17T06:02:27.297Z,8.66
2018-10-17T06:04:56.078Z,8.79
2018-10-17T06:07:24.508Z,8.90
2018-10-17T06:09:52.983Z,9.03
2018-10-17T06:12:21.330Z,8.99
2018-10-17T06:14:49.682Z,9.09
2018-10-17T06:17:18.179Z,9.20
2018-10-17T06:19:46.578Z,9.05
2018-10-17T06:22:14.925Z,9.12
2018-10-17T06:24:43.324Z,9.16
2018-10-17T06:27:11.963Z,9.35
2018-10-17T06:29:40.484Z,9.44
2018-10-17T06:32:08.831Z,9.53
2018-10-17T06:34:37.295Z,9.71
2018-10-17T06:37:06.167Z,9.74
2018-10-17T06:39:34.490Z,9.99
2018-10-17T06:42:02.931Z,10.06
2018-10-17T06:44:31.337Z,10.18
2018-10-17T06:46:59.782Z,10.10
2018-10-17T06:49:28.071Z,10.19
2018-10-17T06:51:56.443Z,10.28
2018-10-17T06:54:24.842Z,10.16
2018-10-17T06:56:53.202Z,10.28
2018-10-17T06:59:21.608Z,10.27
2018-10-17T07:01:50.001Z,10.27
2018-10-17T07:04:18.373Z,10.15
2018-10-17T07:06:46.844Z,10.18
2018-10-17T07:09:15.228Z,10.32
2018-10-17T07:11:43.837Z,10.40
2018-10-17T07:14:12.204Z,10.56
2018-10-17T07:16:40.564Z,10.58
2018-10-17T07:19:09.080Z,10.71
2018-10-17T07:21:37.592Z,10.74
2018-10-17T07:24:05.939Z,10.80
2018-10-17T07:26:34.326Z,10.94
2018-10-17T07:29:09.249Z,11.17
2018-10-17T07:31:37.995Z,11.33
2018-10-17T07:34:06.519Z,11.37
2018-10-17T07:36:34.891Z,11.46
2018-10-17T07:39:03.664Z,11.54
2018-10-17T07:41:32.072Z,11.64
2018-10-17T07:44:01.516Z,11.74
2018-10-17T07:46:30.200Z,11.82
2018-10-17T07:48:58.607Z,11.95
2018-10-17T07:51:26.984Z,12.03
2018-10-17T07:53:55.380Z,12.11
2018-10-17T07:56:23.857Z,12.16
2018-10-17T07:58:52.247Z,12.24
2018-10-17T08:01:20.610Z,12.34
2018-10-17T08:03:48.979Z,12.44
2018-10-17T08:06:17.510Z,12.55
2018-10-17T08:08:45.959Z,12.61
2018-10-17T08:11:14.315Z,12.64
2018-10-17T08:13:42.703Z,12.70
2018-10-17T08:16:11.307Z,12.79
2018-10-17T08:18:39.724Z,12.88
2018-10-17T08:21:08.206Z,12.91
2018-10-17T08:23:36.556Z,12.90
2018-10-17T08:26:04.899Z,12.92
2018-10-17T08:28:33.254Z,12.92
2018-10-17T08:31:01.603Z,12.95
2018-10-17T08:33:29.966Z,12.99
2018-10-17T08:35:58.623Z,12.97
2018-10-17T08:38:26.920Z,13.00
2018-10-17T08:40:55.361Z,13.00
2018-10-17T08:43:23.718Z,13.07
2018-10-17T08:45:52.080Z,13.21
2018-10-17T08:48:20.435Z,13.21
2018-10-17T08:50:48.933Z,13.22
2018-10-17T08:53:29.547Z,13.17
2018-10-17T08:55:57.905Z,13.18
2018-10-17T08:58:26.255Z,13.07
2018-10-17T09:00:54.644Z,13.05
2018-10-17T09:03:23.018Z,13.08
2018-10-17T09:05:51.385Z,13.04
2018-10-17T09:08:19.824Z,13.07
2018-10-17T09:10:48.178Z,13.16
2018-10-17T09:13:16.560Z,13.23
2018-10-17T09:15:44.904Z,13.32
2018-10-17T09:18:13.354Z,13.49
2018-10-17T09:20:41.942Z,13.57
2018-10-17T09:23:10.082Z,13.69
2018-10-17T09:25:38.468Z,13.94
2018-10-17T09:28:06.663Z,14.12
2018-10-17T09:30:35.009Z,14.40
2018-10-17T09:33:03.527Z,14.68
2018-10-17T09:35:31.917Z,14.88
2018-10-17T09:38:00.300Z,15.10
2018-10-17T09:40:28.641Z,15.32
2018-10-17T09:42:57.016Z,15.41
2018-10-17T09:45:25.351Z,15.44
2018-10-17T09:47:53.716Z,15.78
2018-10-17T09:50:22.072Z,15.85
2018-10-17T09:52:50.506Z,15.77
2018-10-17T09:55:18.875Z,15.88
2018-10-17T09:57:47.245Z,16.21
2018-10-17T10:00:20.932Z,16.29
2018-10-17T10:02:50.810Z,16.43
2018-10-17T10:05:19.169Z,16.41
2018-10-17T10:07:47.555Z,16.57
2018-10-17T10:10:15.998Z,16.57
2018-10-17T10:12:44.307Z,16.65
2018-10-17T10:15:12.721Z,16.62
2018-10-17T10:17:41.151Z,16.57
2018-10-17T10:20:09.474Z,16.64
2018-10-17T10:22:37.810Z,16.70
2018-10-17T10:25:06.419Z,16.78
2018-10-17T10:27:34.768Z,16.97
2018-10-17T10:30:03.404Z,16.97
2018-10-17T10:32:31.880Z,17.12
2018-10-17T10:35:00.255Z,17.26
2018-10-17T10:37:28.597Z,17.34
2018-10-17T10:39:57.011Z,17.41
2018-10-17T10:42:25.328Z,17.54
2018-10-17T10:44:53.707Z,17.61
2018-10-17T10:47:22.050Z,17.57
2018-10-17T10:49:50.412Z,17.59
2018-10-17T10:52:18.738Z,17.62
2018-10-17T10:54:47.201Z,17.58
2018-10-17T10:57:15.676Z,17.72
2018-10-17T10:59:44.368Z,17.69
2018-10-17T11:02:12.682Z,17.73
2018-10-17T11:04:41.081Z,17.81
2018-10-17T11:07:09.443Z,17.92
2018-10-17T11:09:37.804Z,17.91
2018-10-17T11:12:06.571Z,17.91
2018-10-17T11:14:35.000Z,17.92
2018-10-17T11:17:03.404Z,17.96
2018-10-17T11:19:31.764Z,18.09
2018-10-17T11:22:00.155Z,18.06
2018-10-17T11:24:28.494Z,18.15
2018-10-17T11:26:56.855Z,18.29
2018-10-17T11:29:25.272Z,18.35
2018-10-17T11:31:53.690Z,18.40
2018-10-17T11:34:21.967Z,18.47
2018-10-17T11:36:50.408Z,18.61
2018-10-17T11:39:18.808Z,18.65
2018-10-17T11:41:47.147Z,18.84
2018-10-17T11:44:15.528Z,18.73
2018-10-17T11:46:43.858Z,18.79
2018-10-17T11:49:12.219Z,18.91
2018-10-17T11:51:40.610Z,18.91
2018-10-17T11:54:08.971Z,18.99
2018-10-17T11:56:37.314Z,19.00
2018-10-17T11:59:05.901Z,18.96
2018-10-17T12:01:34.263Z,19.01
2018-10-17T12:04:02.890Z,19.12
2018-10-17T12:06:31.107Z,19.16
2018-10-17T12:08:59.444Z,19.12
2018-10-17T12:11:27.877Z,19.12
2018-10-17T12:13:56.199Z,19.26
2018-10-17T12:16:24.547Z,19.21
2018-10-17T12:18:53.047Z,19.27
2018-10-17T12:21:21.447Z,19.20
2018-10-17T12:23:49.747Z,19.21
2018-10-17T12:26:18.268Z,19.18
2018-10-17T12:57:53.871Z,19.67
2018-10-17T13:00:22.391Z,19.79
2018-10-17T13:02:50.683Z,19.89
2018-10-17T13:05:19.001Z,19.76
2018-10-17T13:07:47.338Z,19.92
2018-10-17T13:10:15.627Z,19.66
2018-10-17T13:12:43.877Z,19.78
2018-10-17T13:15:14.215Z,20.06
2018-10-17T13:17:43.584Z,20.08
2018-10-17T13:20:12.049Z,20.10
2018-10-17T13:22:40.647Z,20.05
2018-10-17T13:25:09.020Z,20.05
2018-10-17T13:27:37.353Z,19.73
2018-10-17T13:30:06.411Z,19.92
2018-10-17T13:32:34.729Z,19.91
2018-10-17T13:35:03.408Z,20.07
2018-10-17T13:37:31.823Z,20.36
2018-10-17T13:40:00.130Z,20.39
2018-10-17T13:42:28.497Z,20.29
2018-10-17T13:44:56.815Z,20.30
2018-10-17T13:47:25.226Z,20.09
2018-10-17T13:49:53.932Z,19.81
2018-10-17T13:52:22.312Z,19.74
2018-10-17T13:54:50.689Z,19.80
2018-10-17T13:57:18.952Z,19.79
2018-10-17T13:59:47.348Z,20.01
2018-10-17T14:02:15.738Z,19.90
2018-10-17T14:04:44.050Z,19.80
2018-10-17T14:07:12.627Z,20.00
2018-10-17T14:09:44.140Z,19.86
2018-10-17T14:12:12.686Z,19.76
2018-10-17T14:14:42.084Z,20.00
2018-10-17T14:17:10.783Z,19.76
2018-10-17T14:19:39.328Z,20.02
2018-10-17T14:22:08.615Z,19.70
2018-10-17T14:24:37.416Z,20.19
2018-10-17T14:27:06.554Z,20.03
2018-10-17T14:29:37.984Z,20.09
2018-10-17T14:32:06.961Z,20.16
2018-10-17T14:34:35.666Z,20.16
2018-10-17T14:37:04.128Z,20.20
2018-10-17T14:39:32.527Z,19.99
2018-10-17T14:42:01.020Z,20.07
2018-10-17T14:44:29.384Z,19.78
2018-10-17T14:46:57.884Z,19.89
2018-10-17T14:49:26.178Z,20.07
2018-10-17T14:51:54.969Z,19.81
2018-10-17T14:54:24.241Z,19.97
2018-10-17T14:57:03.635Z,19.88
2018-10-17T14:59:32.284Z,19.56
2018-10-17T15:02:00.871Z,19.62
2018-10-17T15:04:30.579Z,19.74
2018-10-17T15:06:59.054Z,19.77
2018-10-17T15:09:27.915Z,19.54
2018-10-17T15:11:56.698Z,19.57
2018-10-17T15:14:24.791Z,19.54
2018-10-17T15:16:53.457Z,19.36
2018-10-17T15:19:21.866Z,19.34
2018-10-17T15:21:50.195Z,19.15
2018-10-17T15:24:18.978Z,19.07
2018-10-17T15:26:47.285Z,18.85
2018-10-17T15:29:22.023Z,18.66
2018-10-17T15:31:50.543Z,18.74
2018-10-17T15:34:18.812Z,18.74
2018-10-17T15:36:47.246Z,18.49
2018-10-17T15:39:16.710Z,18.50
2018-10-17T15:41:45.419Z,18.42
2018-10-17T15:44:13.888Z,18.41
2018-10-17T15:46:42.266Z,18.30
2018-10-17T15:49:10.757Z,18.18
2018-10-17T15:51:39.691Z,18.09
2018-10-17T15:54:08.079Z,17.87
2018-10-17T15:56:36.849Z,17.60
2018-10-17T15:59:05.624Z,17.37
2018-10-17T16:01:34.288Z,17.22
2018-10-17T16:04:03.487Z,16.98
2018-10-17T16:06:32.148Z,16.73
2018-10-17T16:09:00.857Z,16.63
2018-10-17T16:11:29.420Z,16.48
2018-10-17T16:13:58.188Z,16.35
2018-10-17T16:16:26.654Z,16.26
2018-10-17T16:18:55.010Z,16.18
2018-10-17T16:21:23.311Z,16.05
2018-10-17T16:23:51.852Z,15.92
2018-10-17T16:26:20.273Z,15.81
2018-10-17T16:28:48.664Z,15.72
2018-10-17T16:31:17.248Z,15.59
2018-10-17T16:33:45.564Z,15.52
2018-10-17T16:36:13.945Z,15.47
2018-10-17T16:38:42.241Z,15.41
2018-10-17T16:41:10.563Z,15.31
2018-10-17T16:43:38.948Z,15.22
2018-10-17T16:46:07.793Z,15.09
2018-10-17T16:48:36.243Z,15.09
2018-10-17T16:51:04.611Z,14.92
2018-10-17T16:53:32.969Z,14.86
2018-10-17T16:56:01.305Z,14.84
2018-10-17T16:58:29.698Z,14.65
2018-10-17T17:00:58.063Z,14.58
2018-10-17T17:03:26.419Z,14.61
2018-10-17T17:05:54.811Z,14.56
2018-10-17T17:08:23.276Z,14.53
2018-10-17T17:10:51.622Z,14.42
2018-10-17T17:13:19.941Z,14.32
2018-10-17T17:15:48.288Z,14.34
2018-10-17T17:18:16.777Z,14.26
2018-10-17T17:20:45.013Z,14.24
2018-10-17T17:23:13.364Z,14.14
2018-10-17T17:25:42.144Z,14.10
2018-10-17T17:28:10.515Z,14.08
2018-10-17T17:30:38.995Z,14.05
2018-10-17T17:33:07.381Z,14.00
2018-10-17T17:35:35.727Z,13.90
2018-10-17T17:38:04.351Z,13.75
2018-10-17T17:40:32.741Z,13.68
2018-10-17T17:43:02.568Z,13.71
2018-10-17T17:48:04.142Z,13.61
2018-10-17T17:50:33.223Z,13.67
2018-10-17T17:53:01.584Z,13.54
2018-10-17T17:55:32.716Z,13.43
2018-10-17T17:58:04.775Z,13.32
2018-10-17T18:00:35.372Z,13.27
2018-10-17T18:03:06.600Z,13.29
2018-10-17T18:05:38.663Z,13.19
2018-10-17T18:08:08.307Z,13.17
2018-10-17T18:10:38.653Z,13.14
2018-10-17T18:13:08.564Z,13.06
2018-10-17T18:15:39.059Z,13.03
2018-10-17T18:18:08.386Z,12.98
2018-10-17T18:20:36.999Z,12.97
2018-10-17T18:23:07.356Z,13.02
2018-10-17T18:25:35.787Z,12.97
2018-10-17T18:28:05.436Z,12.83
2018-10-17T18:30:34.772Z,12.83
2018-10-17T18:33:03.589Z,12.80
2018-10-17T18:35:33.570Z,12.76
2018-10-17T18:38:02.326Z,12.73
2018-10-17T18:40:30.768Z,12.71
2018-10-17T18:43:00.223Z,12.70
2018-10-17T18:45:28.561Z,12.63
2018-10-17T18:47:57.346Z,12.61
2018-10-17T18:50:26.899Z,12.61
2018-10-17T18:52:56.383Z,12.53
2018-10-17T18:55:26.021Z,12.46
2018-10-17T18:57:55.081Z,12.37
2018-10-17T19:00:24.352Z,12.37
2018-10-17T19:02:52.734Z,12.35
2018-10-17T19:05:21.298Z,12.26
2018-10-17T19:07:49.843Z,12.06
2018-10-17T19:10:19.089Z,12.18
2018-10-17T19:12:47.643Z,12.23
2018-10-17T19:15:16.083Z,12.25
2018-10-17T19:17:44.488Z,12.23
2018-10-17T19:20:13.083Z,12.07
2018-10-17T19:22:43.095Z,11.83
2018-10-17T19:25:11.502Z,11.65
2018-10-17T19:27:39.827Z,11.58
2018-10-17T19:30:09.599Z,11.86
2018-10-17T19:32:38.084Z,11.69
2018-10-17T19:35:06.715Z,11.72
2018-10-17T19:37:35.507Z,11.89
2018-10-17T19:40:03.952Z,11.74
2018-10-17T19:42:32.281Z,11.59
2018-10-17T19:45:04.305Z,11.51
2018-10-17T19:47:32.652Z,11.54
2018-10-17T19:50:00.993Z,11.62
2018-10-17T19:52:29.492Z,11.56
2018-10-17T19:54:58.023Z,11.49
2018-10-17T19:57:32.646Z,11.52
2018-10-17T20:04:25.811Z,11.09
2018-10-17T20:06:54.164Z,11.06
2018-10-17T20:09:22.529Z,11.01
2018-10-17T20:11:50.932Z,11.02
2018-10-17T20:14:19.299Z,11.24
2018-10-17T20:16:47.636Z,11.13
2018-10-17T20:19:16.054Z,11.13
2018-10-17T20:21:44.392Z,11.18
2018-10-17T20:24:12.771Z,11.13
2018-10-17T20:26:41.162Z,10.77
2018-10-17T20:29:09.518Z,10.69
2018-10-17T20:31:37.956Z,10.64
2018-10-17T20:34:06.312Z,10.73
2018-10-17T20:36:34.824Z,10.82
2018-10-17T20:39:03.198Z,10.76
2018-10-17T20:41:31.529Z,10.82
2018-10-17T20:43:59.909Z,10.88
2018-10-17T20:46:28.404Z,10.66
2018-10-17T20:48:56.716Z,10.59
2018-10-17T20:51:25.044Z,10.69
2018-10-17T20:53:53.457Z,10.83
2018-10-17T20:56:21.911Z,10.76
2018-10-17T20:58:50.141Z,10.74
2018-10-17T21:01:18.568Z,10.64
2018-10-17T21:03:46.935Z,10.54
2018-10-17T21:06:15.291Z,10.46
2018-10-17T21:08:43.660Z,10.45
2018-10-17T21:11:12.057Z,10.33
2018-10-17T21:13:40.392Z,10.44
2018-10-17T21:16:08.711Z,10.43
2018-10-17T21:18:37.027Z,10.51
2018-10-17T21:21:05.752Z,10.42
2018-10-17T21:23:34.052Z,10.30
2018-10-17T21:26:02.484Z,10.14
2018-10-17T21:28:30.838Z,10.06
2018-10-17T21:30:59.224Z,10.21
2018-10-17T21:33:27.529Z,10.17
2018-10-17T21:35:55.919Z,10.06
2018-10-17T21:38:24.328Z,9.99
2018-10-17T21:40:52.697Z,9.88
2018-10-17T21:43:21.072Z,9.83
2018-10-17T21:45:49.392Z,9.63
2018-10-17T21:48:17.726Z,9.83
2018-10-17T21:50:46.096Z,9.97
2018-10-17T21:53:14.447Z,10.00
2018-10-17T21:55:42.828Z,10.05
2018-10-17T21:58:11.146Z,10.04
2018-10-17T22:00:39.729Z,9.93
2018-10-17T22:03:08.026Z,9.90
2018-10-17T22:05:36.391Z,9.88
2018-10-17T22:08:05.166Z,9.82
2018-10-17T22:10:33.417Z,9.75
2018-10-17T22:13:02.203Z,9.56
2018-10-17T22:15:30.575Z,9.54
2018-10-17T22:17:58.874Z,9.57
2018-10-17T22:20:27.262Z,9.70
2018-10-17T22:22:55.637Z,9.79
2018-10-17T22:25:23.947Z,9.92
2018-10-17T22:27:52.239Z,9.80
2018-10-17T22:30:20.593Z,9.57
2018-10-17T22:32:48.926Z,9.67
2018-10-17T22:35:17.324Z,9.54
2018-10-17T22:37:45.746Z,9.50
2018-10-17T22:40:14.121Z,9.56
2018-10-17T22:42:42.484Z,9.68
2018-10-17T22:45:10.812Z,9.65
2018-10-17T22:47:39.160Z,9.68
2018-10-17T22:50:08.075Z,9.46
2018-10-17T22:52:36.521Z,9.18
2018-10-17T22:55:04.893Z,9.03
2018-10-17T22:57:33.258Z,9.20
2018-10-17T23:00:01.589Z,9.39
2018-10-17T23:02:30.010Z,9.48
2018-10-17T23:04:58.524Z,9.40
2018-10-17T23:07:26.859Z,9.28
2018-10-17T23:09:55.235Z,9.31
2018-10-17T23:12:23.561Z,9.11
2018-10-17T23:14:51.967Z,9.28
2018-10-17T23:17:20.312Z,9.32
2018-10-17T23:19:48.619Z,9.16
2018-10-17T23:22:16.954Z,9.27
2018-10-17T23:24:45.280Z,9.26
2018-10-17T23:27:13.608Z,9.19
2018-10-17T23:29:41.917Z,9.31
2018-10-17T23:32:10.380Z,9.23
2018-10-17T23:34:38.695Z,9.00
2018-10-17T23:37:07.096Z,9.16
2018-10-17T23:39:35.531Z,8.97
2018-10-17T23:42:03.869Z,9.04
2018-10-17T23:44:32.184Z,8.97
2018-10-17T23:47:00.640Z,9.13
2018-10-17T23:49:29.003Z,8.93
2018-10-17T23:51:57.401Z,8.79
2018-10-17T23:54:25.790Z,9.07
2018-10-17T23:56:54.194Z,8.95
2018-10-17T23:59:22.492Z,8.94
